Time;durP1;ratioP1;P1;durP2;ratioP2;P2;SDS_P1;SDS_P2;PMS_P1;PMS_P2;Temp;Humidity;BMP_temperature;BMP_pressure;BME280_temperature;BME280_humidity;BME280_pressure;Samples;Min_cycle;Max_cycle;Signal;HPM_P1;HPM_P2
2024/02/04 00:00:37;;;;;;;107.40;61.03;;;6.10;96.90;;;;;;6275755;22;20219;-58
2024/02/04 00:03:05;;;;;;;112.47;61.33;;;6.00;96.70;;;;;;6276414;22;20176;-58
2024/02/04 00:05:32;;;;;;;108.77;60.90;;;6.00;96.70;;;;;;6276866;22;20179;-58
2024/02/04 00:07:59;;;;;;;113.77;64.83;;;5.90;96.70;;;;;;6276353;22;20177;-60
2024/02/04 00:10:26;;;;;;;121.93;71.07;;;5.90;96.80;;;;;;6275734;22;20205;-58
2024/02/04 00:12:54;;;;;;;107.07;62.20;;;5.90;96.80;;;;;;6277016;22;20472;-58
2024/02/04 00:15:21;;;;;;;99.20;57.10;;;5.90;96.90;;;;;;6275815;22;20184;-58
2024/02/04 00:17:48;;;;;;;100.73;58.07;;;5.90;96.90;;;;;;6276073;22;20168;-58
2024/02/04 00:20:15;;;;;;;117.53;65.17;;;5.90;96.80;;;;;;6276456;22;20586;-60
2024/02/04 00:22:42;;;;;;;108.23;61.87;;;5.90;96.90;;;;;;6276641;22;20179;-60
2024/02/04 00:25:11;;;;;;;128.67;71.73;;;5.90;97.20;;;;;;6276137;22;20211;-60
2024/02/04 00:27:39;;;;;;;93.07;55.37;;;5.90;97.00;;;;;;6275998;22;20591;-60
2024/02/04 00:30:07;;;;;;;99.83;60.80;;;5.90;97.00;;;;;;6276457;22;20170;-60
2024/02/04 00:32:34;;;;;;;135.33;76.47;;;5.90;97.00;;;;;;6248993;22;20201;-60
2024/02/04 00:35:02;;;;;;;126.40;71.20;;;5.90;97.00;;;;;;6276675;22;20907;-60
2024/02/04 00:37:29;;;;;;;89.90;54.73;;;5.90;97.10;;;;;;6249041;22;20536;-60
2024/02/04 00:39:56;;;;;;;116.40;70.40;;;5.90;97.10;;;;;;6249617;22;20197;-60
2024/02/04 00:42:23;;;;;;;240.10;64.33;;;5.90;97.10;;;;;;6275952;22;20443;-60
2024/02/04 00:44:50;;;;;;;141.13;79.47;;;5.90;97.00;;;;;;6275796;22;20174;-59
2024/02/04 00:47:18;;;;;;;131.43;70.20;;;5.90;97.00;;;;;;6274699;22;20183;-60
2024/02/04 00:49:45;;;;;;;113.53;63.20;;;5.80;97.10;;;;;;6276012;22;20519;-60
2024/02/04 00:52:12;;;;;;;119.07;69.47;;;5.80;97.20;;;;;;6249132;22;20208;-60
2024/02/04 00:54:39;;;;;;;121.27;66.47;;;5.80;97.30;;;;;;6248946;22;20613;-60
2024/02/04 00:57:06;;;;;;;116.97;67.60;;;5.80;97.40;;;;;;6274460;22;20526;-60
2024/02/04 00:59:33;;;;;;;119.80;69.47;;;5.80;97.50;;;;;;6249401;22;20254;-60
2024/02/04 01:02:00;;;;;;;121.17;67.70;;;5.70;97.40;;;;;;6276007;22;20171;-60
2024/02/04 01:04:27;;;;;;;114.83;64.27;;;5.70;97.30;;;;;;6275684;22;20179;-60
2024/02/04 01:06:55;;;;;;;106.53;60.20;;;5.70;97.30;;;;;;6275371;22;20555;-60
2024/02/04 01:09:28;;;;;;;114.50;65.00;;;5.60;97.20;;;;;;6249484;22;20483;-60
2024/02/04 01:11:56;;;;;;;115.33;63.77;;;5.50;97.10;;;;;;6275562;22;20219;-60
2024/02/04 01:14:24;;;;;;;113.63;63.50;;;5.50;97.10;;;;;;6275642;22;20169;-60
2024/02/04 01:16:51;;;;;;;103.70;59.67;;;5.40;97.20;;;;;;6275876;22;20179;-60
2024/02/04 01:19:18;;;;;;;100.50;58.97;;;5.40;97.20;;;;;;6275894;22;20180;-60
2024/02/04 01:21:46;;;;;;;106.47;61.20;;;5.30;97.20;;;;;;6274878;22;20175;-60
2024/02/04 01:24:13;;;;;;;112.83;63.70;;;5.30;97.10;;;;;;6275407;22;20208;-60
2024/02/04 01:26:40;;;;;;;106.43;61.83;;;5.20;97.10;;;;;;6275422;22;20229;-60
2024/02/04 01:29:07;;;;;;;118.40;64.80;;;5.20;97.00;;;;;;6275795;22;20256;-60
2024/02/04 01:31:34;;;;;;;108.37;62.43;;;5.20;97.10;;;;;;6275186;22;20612;-60
2024/02/04 01:34:01;;;;;;;123.77;66.97;;;5.20;97.30;;;;;;6274836;22;20174;-60
2024/02/04 01:36:29;;;;;;;120.57;69.03;;;5.20;97.30;;;;;;6248412;22;20184;-60
2024/02/04 01:38:57;;;;;;;125.07;69.73;;;5.30;97.30;;;;;;6275352;22;20177;-60
2024/02/04 01:41:26;;;;;;;111.70;67.43;;;5.30;97.40;;;;;;6275097;22;20165;-60
2024/02/04 01:43:54;;;;;;;115.07;65.07;;;5.30;97.40;;;;;;6249049;22;20177;-60
2024/02/04 01:46:22;;;;;;;112.93;63.23;;;5.30;97.40;;;;;;6274563;22;20246;-59
2024/02/04 01:48:50;;;;;;;107.50;60.43;;;5.30;97.40;;;;;;6275607;22;20208;-59
2024/02/04 01:51:19;;;;;;;116.83;68.20;;;5.30;97.40;;;;;;6274962;22;20317;-60
2024/02/04 01:53:48;;;;;;;100.37;58.57;;;5.30;97.40;;;;;;6275904;22;20201;-59
2024/02/04 01:56:16;;;;;;;102.90;59.57;;;5.30;97.30;;;;;;6274703;22;20165;-60
2024/02/04 01:58:44;;;;;;;89.40;57.07;;;5.20;97.20;;;;;;6248055;22;20612;-60
2024/02/04 02:01:11;;;;;;;95.63;61.93;;;5.10;97.10;;;;;;6273673;22;20188;-59
2024/02/04 02:03:39;;;;;;;88.00;53.37;;;5.10;97.20;;;;;;6248602;22;20491;-59
2024/02/04 02:06:06;;;;;;;89.67;55.57;;;5.10;97.20;;;;;;6275062;22;20210;-59
2024/02/04 02:08:34;;;;;;;90.67;54.73;;;5.10;97.10;;;;;;6275007;22;20172;-59
2024/02/04 02:11:20;;;;;;;98.13;57.53;;;5.00;96.90;;;;;;6248560;22;20181;-59
2024/02/04 02:13:56;;;;;;;116.80;65.67;;;5.00;96.80;;;;;;6275844;22;20158;-60
2024/02/04 02:16:27;;;;;;;93.40;54.40;;;5.00;96.80;;;;;;6275068;22;20245;-60
2024/02/04 02:19:26;;;;;;;104.57;59.40;;;5.00;97.00;;;;;;6274151;22;20166;-60
2024/02/04 02:21:58;;;;;;;104.63;59.67;;;5.00;97.20;;;;;;6242414;22;20178;-60
2024/02/04 02:24:34;;;;;;;117.87;64.40;;;5.00;97.30;;;;;;6247788;22;20197;-60
2024/02/04 02:27:01;;;;;;;135.50;71.80;;;5.00;97.30;;;;;;6275480;22;20223;-60
2024/02/04 02:29:28;;;;;;;125.67;70.60;;;5.00;97.40;;;;;;6274857;22;20173;-59
2024/02/04 02:31:56;;;;;;;121.20;70.67;;;5.00;97.60;;;;;;6275434;22;20634;-60
2024/02/04 02:34:23;;;;;;;112.93;64.20;;;5.00;97.70;;;;;;6247802;22;20627;-60
2024/02/04 02:37:16;;;;;;;108.50;61.37;;;5.00;97.80;;;;;;6248565;22;20165;-60
2024/02/04 02:39:51;;;;;;;115.37;62.83;;;5.00;97.90;;;;;;6248110;22;20212;-60
2024/02/04 02:42:21;;;;;;;93.70;57.37;;;5.00;97.80;;;;;;6275251;22;20168;-60
2024/02/04 02:44:48;;;;;;;107.10;61.70;;;5.00;97.80;;;;;;6275246;22;20177;-60
2024/02/04 02:47:17;;;;;;;100.67;61.17;;;5.00;97.80;;;;;;6273689;22;20177;-60
2024/02/04 02:49:44;;;;;;;113.40;64.57;;;4.90;97.70;;;;;;6248157;22;20592;-59
2024/02/04 02:52:11;;;;;;;93.20;58.17;;;4.90;97.80;;;;;;6274581;22;20189;-60
2024/02/04 02:54:38;;;;;;;97.03;57.07;;;4.90;97.70;;;;;;6274907;22;20528;-60
2024/02/04 02:57:05;;;;;;;99.47;56.97;;;4.90;97.70;;;;;;6274913;22;20166;-60
2024/02/04 02:59:32;;;;;;;93.43;55.47;;;4.90;97.60;;;;;;6274737;22;20173;-59
2024/02/04 03:01:59;;;;;;;84.93;54.53;;;4.80;97.60;;;;;;6275128;22;20173;-59
2024/02/04 03:04:26;;;;;;;96.37;59.07;;;4.80;97.60;;;;;;6248705;22;20488;-59
2024/02/04 03:06:54;;;;;;;105.20;63.40;;;4.80;97.70;;;;;;6247687;22;20185;-59
2024/02/04 03:09:21;;;;;;;93.03;59.13;;;4.70;97.50;;;;;;6274858;22;20602;-59
2024/02/04 03:11:48;;;;;;;86.70;56.83;;;4.70;97.40;;;;;;6274401;22;20280;-59
2024/02/04 03:14:16;;;;;;;78.07;53.03;;;4.60;97.40;;;;;;6247463;22;20177;-59
2024/02/04 03:16:45;;;;;;;77.40;51.83;;;4.70;97.40;;;;;;6247941;22;20457;-59
2024/02/04 03:19:12;;;;;;;76.17;50.80;;;4.60;97.40;;;;;;6247821;22;20238;-59
2024/02/04 03:21:39;;;;;;;90.47;56.87;;;4.60;97.40;;;;;;6273390;22;20242;-60
2024/02/04 03:24:07;;;;;;;92.83;54.80;;;4.60;97.40;;;;;;6247500;22;20217;-60
2024/02/04 03:26:34;;;;;;;110.47;64.07;;;4.60;97.40;;;;;;6273771;22;20185;-60
2024/02/04 03:29:04;;;;;;;127.63;74.70;;;4.60;97.20;;;;;;6273849;22;20177;-59
2024/02/04 03:31:33;;;;;;;122.73;68.57;;;4.60;97.30;;;;;;6247451;22;20289;-59
2024/02/04 03:34:00;;;;;;;113.53;64.60;;;4.60;97.50;;;;;;6247621;22;20487;-59
2024/02/04 03:36:27;;;;;;;128.27;71.07;;;4.60;97.60;;;;;;6248153;22;20177;-60
2024/02/04 03:38:54;;;;;;;130.53;74.90;;;4.60;97.60;;;;;;6247383;22;20173;-60
2024/02/04 03:41:21;;;;;;;125.20;68.73;;;4.70;97.70;;;;;;6274448;22;20346;-60
2024/02/04 03:43:49;;;;;;;119.97;65.03;;;4.70;97.80;;;;;;6272903;22;20262;-60
2024/02/04 03:46:16;;;;;;;110.57;62.83;;;4.70;97.80;;;;;;6275164;22;20165;-60
2024/02/04 03:48:43;;;;;;;106.63;59.90;;;4.70;97.80;;;;;;6246803;22;20520;-59
2024/02/04 03:51:16;;;;;;;107.87;62.13;;;4.60;97.80;;;;;;6248000;22;20269;-60
2024/02/04 03:53:45;;;;;;;104.90;62.17;;;4.60;97.70;;;;;;6249789;22;20177;-60
2024/02/04 03:56:12;;;;;;;93.73;56.17;;;4.50;97.70;;;;;;6249494;22;20300;-60
2024/02/04 03:58:39;;;;;;;111.50;61.47;;;4.50;97.70;;;;;;6249508;22;20176;-60
2024/02/04 04:01:11;;;;;;;102.17;60.33;;;4.50;97.70;;;;;;6276417;22;20738;-59
2024/02/04 04:03:42;;;;;;;102.17;59.97;;;4.40;97.70;;;;;;6276690;22;20184;-60
2024/02/04 04:06:10;;;;;;;94.70;59.43;;;4.30;97.60;;;;;;6276166;22;20180;-60
2024/02/04 04:08:38;;;;;;;103.23;60.17;;;4.30;97.60;;;;;;6277013;22;20444;-60
2024/02/04 04:11:07;;;;;;;93.93;59.13;;;4.30;97.50;;;;;;6276222;22;20173;-60
2024/02/04 04:13:34;;;;;;;97.40;58.63;;;4.20;97.30;;;;;;6276849;22;20208;-60
2024/02/04 04:16:03;;;;;;;106.27;62.67;;;4.20;97.30;;;;;;6276527;22;20498;-59
2024/02/04 04:18:31;;;;;;;112.27;64.30;;;4.10;97.30;;;;;;6276516;22;20176;-60
2024/02/04 04:20:58;;;;;;;109.73;61.90;;;4.00;97.30;;;;;;6275857;22;20196;-59
2024/02/04 04:23:25;;;;;;;98.03;61.17;;;4.00;97.30;;;;;;6276130;22;20187;-60
2024/02/04 04:25:52;;;;;;;104.20;60.93;;;4.00;97.30;;;;;;6276204;22;20230;-60
2024/02/04 04:28:19;;;;;;;107.13;63.27;;;4.00;97.40;;;;;;6275646;22;20177;-60
2024/02/04 04:30:46;;;;;;;267.57;70.70;;;4.00;97.50;;;;;;6277076;22;20183;-59
2024/02/04 04:33:13;;;;;;;146.43;64.43;;;4.00;97.60;;;;;;6277796;22;20549;-59
2024/02/04 04:35:42;;;;;;;610.03;80.07;;;4.00;97.60;;;;;;6279303;22;20181;-60
2024/02/04 04:38:09;;;;;;;770.50;82.07;;;4.00;97.50;;;;;;6281188;22;20169;-60
2024/02/04 04:40:37;;;;;;;673.00;79.63;;;3.90;97.20;;;;;;6279969;22;20239;-60
2024/02/04 04:43:05;;;;;;;660.60;74.87;;;3.80;97.10;;;;;;6227688;22;20203;-60
2024/02/04 04:45:32;;;;;;;157.73;70.90;;;3.70;97.10;;;;;;6279073;22;20173;-60
2024/02/04 04:48:00;;;;;;;310.07;69.40;;;3.60;97.20;;;;;;6278684;22;20181;-60
2024/02/04 04:50:27;;;;;;;164.83;66.90;;;3.60;97.50;;;;;;6252309;22;20187;-60
2024/02/04 04:52:55;;;;;;;135.70;66.60;;;3.60;97.80;;;;;;6251967;22;20193;-60
2024/02/04 04:55:22;;;;;;;241.83;67.13;;;3.60;97.90;;;;;;6278457;22;20183;-60
2024/02/04 04:57:49;;;;;;;209.23;70.67;;;3.60;98.00;;;;;;6278817;22;20169;-60
2024/02/04 05:00:17;;;;;;;247.77;73.77;;;3.70;98.10;;;;;;6279331;22;20226;-60
2024/02/04 05:02:44;;;;;;;267.33;69.00;;;3.60;98.20;;;;;;6278043;22;20622;-60
2024/02/04 05:05:12;;;;;;;235.83;65.60;;;3.70;98.30;;;;;;6252955;22;20503;-60
2024/02/04 05:07:41;;;;;;;215.63;55.60;;;3.70;98.50;;;;;;6201877;22;20184;-60
2024/02/04 05:10:10;;;;;;;156.87;49.93;;;3.70;98.60;;;;;;6251565;22;20208;-60
2024/02/04 05:12:38;;;;;;;123.60;46.40;;;3.70;98.70;;;;;;6251420;22;20197;-61
2024/02/04 05:15:06;;;;;;;173.73;49.87;;;3.70;98.60;;;;;;6252206;22;20173;-60
2024/02/04 05:17:33;;;;;;;105.77;48.73;;;3.70;98.60;;;;;;6251978;22;20260;-61
2024/02/04 05:20:03;;;;;;;85.50;51.50;;;3.70;98.60;;;;;;6278405;22;20603;-60
2024/02/04 05:22:30;;;;;;;286.00;57.83;;;3.60;98.60;;;;;;6278369;22;20678;-61
2024/02/04 05:24:58;;;;;;;132.40;53.80;;;3.60;98.70;;;;;;6251741;22;20184;-60
2024/02/04 05:27:26;;;;;;;287.67;56.10;;;3.60;98.70;;;;;;6278550;22;20180;-60
2024/02/04 05:29:55;;;;;;;105.43;50.77;;;3.50;98.50;;;;;;6251906;22;20173;-60
2024/02/04 05:32:24;;;;;;;130.20;55.30;;;3.50;98.50;;;;;;6251206;22;20263;-60
2024/02/04 05:34:52;;;;;;;120.60;51.30;;;3.50;98.50;;;;;;6251366;22;20260;-60
2024/02/04 05:37:19;;;;;;;264.03;57.43;;;3.40;98.60;;;;;;6252102;22;20169;-60
2024/02/04 05:39:47;;;;;;;278.43;56.80;;;3.40;98.60;;;;;;6215354;23;20210;-60
2024/02/04 05:42:15;;;;;;;177.07;55.17;;;3.40;98.60;;;;;;6240561;23;20195;-60
2024/02/04 05:44:42;;;;;;;392.30;65.00;;;3.40;98.60;;;;;;6216905;23;20170;-60
2024/02/04 05:47:10;;;;;;;245.17;61.87;;;3.30;98.70;;;;;;6241299;23;20185;-60
2024/02/04 05:49:38;;;;;;;308.07;66.60;;;3.30;98.80;;;;;;6217077;23;20187;-61
2024/02/04 05:52:06;;;;;;;339.43;67.63;;;3.30;98.90;;;;;;6242359;23;20178;-60
2024/02/04 05:54:39;;;;;;;230.33;61.93;;;3.30;98.90;;;;;;6216704;23;20186;-60
2024/02/04 05:57:07;;;;;;;229.27;61.97;;;3.30;98.90;;;;;;6241805;23;20727;-60
2024/02/04 05:59:35;;;;;;;257.47;62.67;;;3.20;98.90;;;;;;6242245;23;20186;-60
2024/02/04 06:02:03;;;;;;;405.43;66.63;;;3.20;99.00;;;;;;6218401;23;20166;-61
2024/02/04 06:04:33;;;;;;;312.27;60.20;;;3.20;99.10;;;;;;6241405;23;20273;-59
2024/02/04 06:07:01;;;;;;;314.93;62.30;;;3.20;99.10;;;;;;6241268;23;20674;-60
2024/02/04 06:09:28;;;;;;;422.60;67.17;;;3.20;99.20;;;;;;6241169;23;20177;-60
2024/02/04 06:11:55;;;;;;;237.83;61.57;;;3.20;99.20;;;;;;6216836;23;20684;-60
2024/02/04 06:14:24;;;;;;;286.47;61.40;;;3.20;99.30;;;;;;6216846;23;20177;-61
2024/02/04 06:16:52;;;;;;;298.37;60.30;;;3.20;99.40;;;;;;6190979;23;20181;-60
2024/02/04 06:19:19;;;;;;;305.27;63.50;;;3.10;99.40;;;;;;6215667;23;20186;-60
2024/02/04 06:21:47;;;;;;;284.20;62.47;;;3.20;99.60;;;;;;6216080;23;20192;-60
2024/02/04 06:24:15;;;;;;;467.73;62.13;;;3.20;99.70;;;;;;6215764;23;20194;-60
2024/02/04 06:26:42;;;;;;;260.73;56.47;;;3.20;99.70;;;;;;6216223;23;20181;-60
2024/02/04 06:29:11;;;;;;;218.67;57.80;;;3.20;99.70;;;;;;6190230;23;20181;-60
2024/02/04 06:31:38;;;;;;;215.53;60.37;;;3.20;99.70;;;;;;6239870;23;20459;-60
2024/02/04 06:34:06;;;;;;;205.90;60.87;;;3.20;99.80;;;;;;6216505;23;20209;-60
2024/02/04 06:36:34;;;;;;;168.73;58.13;;;3.30;99.90;;;;;;6239699;23;20184;-60
2024/02/04 06:39:02;;;;;;;273.67;58.97;;;3.30;99.90;;;;;;6221991;22;20178;-60
2024/02/04 06:41:29;;;;;;;501.50;69.40;;;3.40;99.90;;;;;;6277298;22;20161;-60
2024/02/04 06:43:57;;;;;;;205.80;59.07;;;3.40;99.90;;;;;;6225636;22;20188;-60
2024/02/04 06:46:28;;;;;;;633.90;68.43;;;3.40;99.90;;;;;;6277258;22;20169;-60
2024/02/04 06:48:56;;;;;;;306.70;58.57;;;3.40;99.80;;;;;;6225570;22;20271;-60
2024/02/04 06:51:24;;;;;;;517.87;62.37;;;3.30;99.70;;;;;;6251138;22;20186;-61
2024/02/04 06:53:53;;;;;;;236.87;55.67;;;3.30;99.70;;;;;;6201273;22;20564;-60
2024/02/04 06:56:22;;;;;;;169.47;54.60;;;3.30;99.80;;;;;;6250422;22;20179;-61
2024/02/04 06:58:50;;;;;;;221.37;58.03;;;3.30;99.90;;;;;;6250347;22;20205;-60
2024/02/04 07:01:18;;;;;;;288.23;58.87;;;3.30;99.90;;;;;;6225426;22;20226;-60
2024/02/04 07:03:49;;;;;;;327.47;60.97;;;3.30;99.90;;;;;;6250926;22;20174;-60
2024/02/04 07:06:18;;;;;;;274.60;62.17;;;3.40;99.90;;;;;;6277630;22;20176;-60
2024/02/04 07:08:46;;;;;;;242.17;57.73;;;3.40;99.90;;;;;;6277270;22;20175;-60
2024/02/04 07:11:13;;;;;;;196.40;57.03;;;3.40;99.90;;;;;;6277188;22;20177;-60
2024/02/04 07:13:42;;;;;;;188.53;57.43;;;3.40;99.90;;;;;;6225646;22;20201;-60
2024/02/04 07:16:10;;;;;;;180.43;55.13;;;3.50;99.90;;;;;;6277536;22;20234;-60
2024/02/04 07:18:38;;;;;;;194.87;55.10;;;3.50;99.90;;;;;;6250635;22;20555;-61
2024/02/04 07:21:06;;;;;;;164.93;57.10;;;3.60;99.90;;;;;;6249599;22;20225;-60
2024/02/04 07:23:34;;;;;;;180.97;57.33;;;3.60;99.90;;;;;;6277698;22;20184;-60
2024/02/04 07:26:03;;;;;;;219.23;57.33;;;3.70;99.90;;;;;;6251591;22;20584;-60
2024/02/04 07:28:34;;;;;;;188.27;57.50;;;3.70;99.90;;;;;;6227821;22;20195;-60
2024/02/04 07:31:02;;;;;;;176.77;61.00;;;3.70;99.90;;;;;;6251714;22;20276;-60
2024/02/04 07:33:30;;;;;;;260.37;61.30;;;3.80;99.90;;;;;;6279131;22;20258;-60
2024/02/04 07:35:59;;;;;;;234.90;58.53;;;3.90;99.90;;;;;;6227003;22;20560;-60
2024/02/04 07:38:28;;;;;;;184.37;61.77;;;3.90;99.90;;;;;;6227238;22;20188;-60
2024/02/04 07:40:59;;;;;;;226.30;61.33;;;4.00;99.90;;;;;;6219618;23;20352;-60
2024/02/04 07:43:27;;;;;;;155.07;62.40;;;4.10;99.90;;;;;;6218075;23;20159;-60
2024/02/04 07:45:56;;;;;;;172.40;59.30;;;4.20;99.90;;;;;;6218233;23;20196;-60
2024/02/04 07:48:28;;;;;;;164.97;57.93;;;4.30;99.90;;;;;;6218157;23;20162;-60
2024/02/04 07:50:55;;;;;;;267.00;60.53;;;4.30;99.90;;;;;;6216631;23;20179;-61
2024/02/04 07:53:23;;;;;;;321.50;62.47;;;4.40;99.90;;;;;;6218064;23;20556;-60
2024/02/04 07:55:51;;;;;;;149.07;62.67;;;4.40;99.90;;;;;;6216814;23;20262;-60
2024/02/04 07:58:20;;;;;;;286.43;60.50;;;4.50;99.90;;;;;;6217930;23;20174;-60
2024/02/04 08:00:48;;;;;;;187.43;60.30;;;4.50;99.90;;;;;;6192033;23;20179;-60
2024/02/04 08:03:16;;;;;;;208.27;67.30;;;4.60;99.90;;;;;;6217724;23;20183;-60
2024/02/04 08:05:44;;;;;;;213.67;61.93;;;4.70;99.90;;;;;;6216572;23;20190;-60
2024/02/04 08:08:13;;;;;;;205.83;61.80;;;4.70;99.90;;;;;;6216797;23;20179;-60
2024/02/04 08:10:42;;;;;;;170.13;57.50;;;4.80;99.90;;;;;;6191663;23;20189;-60
2024/02/04 08:13:10;;;;;;;178.33;63.40;;;4.90;99.90;;;;;;6217827;23;20267;-60
2024/02/04 08:15:39;;;;;;;217.07;59.33;;;5.00;99.90;;;;;;6215864;23;20242;-60
2024/02/04 08:18:08;;;;;;;168.60;60.77;;;5.00;99.90;;;;;;6192229;23;20200;-61
2024/02/04 08:20:37;;;;;;;181.57;60.33;;;5.10;99.90;;;;;;6215340;23;20220;-60
2024/02/04 08:23:05;;;;;;;136.90;58.07;;;5.20;99.90;;;;;;6191810;23;20439;-64
2024/02/04 08:25:33;;;;;;;147.00;57.70;;;5.20;99.90;;;;;;6216247;23;20174;-60
2024/02/04 08:28:01;;;;;;;134.10;58.50;;;5.30;99.90;;;;;;6216939;23;20198;-60
2024/02/04 08:30:29;;;;;;;105.10;57.10;;;5.50;99.90;;;;;;6217504;23;20269;-60
2024/02/04 08:32:57;;;;;;;106.77;58.87;;;5.60;99.90;;;;;;6217688;23;20281;-60
2024/02/04 08:35:25;;;;;;;83.03;55.40;;;5.70;99.90;;;;;;6217344;23;20177;-60
2024/02/04 08:37:54;;;;;;;94.03;55.93;;;5.70;99.90;;;;;;6216131;23;20175;-60
2024/02/04 08:40:22;;;;;;;104.73;57.27;;;5.90;99.90;;;;;;6206216;23;20217;-60
2024/02/04 08:42:50;;;;;;;93.33;58.37;;;6.00;99.90;;;;;;6215823;23;20171;-60
2024/02/04 08:45:18;;;;;;;100.00;57.17;;;6.10;99.90;;;;;;6215994;23;20186;-60
2024/02/04 08:47:46;;;;;;;84.70;55.93;;;6.30;99.90;;;;;;6216053;23;20181;-60
2024/02/04 08:50:15;;;;;;;90.50;54.47;;;6.40;99.90;;;;;;6241528;23;20180;-60
2024/02/04 08:52:44;;;;;;;85.60;54.83;;;6.60;99.90;;;;;;6191428;23;20174;-60
2024/02/04 08:55:13;;;;;;;84.53;55.00;;;6.70;99.90;;;;;;6240911;23;20185;-60
2024/02/04 08:57:41;;;;;;;82.03;54.27;;;6.90;99.90;;;;;;6216214;23;20183;-60
2024/02/04 09:00:11;;;;;;;88.00;57.63;;;7.10;99.90;;;;;;6217630;23;20174;-60
2024/02/04 09:02:40;;;;;;;89.43;56.43;;;7.20;99.90;;;;;;6190334;23;20266;-60
2024/02/04 09:05:09;;;;;;;99.20;60.53;;;7.40;99.90;;;;;;6216526;23;20533;-60
2024/02/04 09:07:36;;;;;;;95.03;59.63;;;7.50;99.90;;;;;;6216805;23;20180;-60
2024/02/04 09:10:06;;;;;;;102.13;62.97;;;7.60;99.90;;;;;;6191421;23;20176;-60
2024/02/04 09:12:35;;;;;;;103.23;64.80;;;7.80;99.90;;;;;;6216807;23;20171;-60
2024/02/04 09:15:04;;;;;;;100.43;63.30;;;7.90;99.90;;;;;;6215806;23;20188;-59
2024/02/04 09:17:34;;;;;;;97.10;63.30;;;8.10;99.80;;;;;;6190602;23;20182;-60
2024/02/04 09:20:03;;;;;;;96.87;63.30;;;8.20;99.70;;;;;;6216412;23;20253;-60
2024/02/04 09:22:32;;;;;;;98.70;60.40;;;8.40;99.60;;;;;;6215350;23;20184;-60
2024/02/04 09:25:00;;;;;;;99.20;63.20;;;8.40;99.40;;;;;;6216872;23;20185;-60
2024/02/04 09:27:30;;;;;;;96.93;61.20;;;8.50;99.30;;;;;;6215222;23;20667;-60
2024/02/04 09:30:00;;;;;;;98.50;63.40;;;8.60;99.20;;;;;;6191138;23;20200;-60
2024/02/04 09:32:27;;;;;;;98.40;65.50;;;8.80;99.10;;;;;;6216343;23;20188;-60
2024/02/04 09:34:56;;;;;;;98.53;63.57;;;8.90;99.10;;;;;;6215980;23;20213;-60
2024/02/04 09:37:24;;;;;;;106.80;64.03;;;9.00;99.00;;;;;;6214867;23;20190;-60
2024/02/04 09:39:51;;;;;;;105.83;65.47;;;9.10;98.90;;;;;;6244574;22;20256;-60
2024/02/04 09:42:24;;;;;;;102.33;68.97;;;9.10;98.70;;;;;;6276932;22;20181;-60
2024/02/04 09:44:52;;;;;;;106.57;70.23;;;9.20;98.60;;;;;;6277214;22;20164;-58
2024/02/04 09:47:20;;;;;;;108.03;72.60;;;9.20;98.60;;;;;;6276699;22;20171;-58
2024/02/04 09:49:47;;;;;;;115.37;72.73;;;9.40;98.70;;;;;;6250927;22;20690;-58
2024/02/04 09:52:22;;;;;;;111.30;73.63;;;9.40;98.70;;;;;;6277157;22;20174;-58
2024/02/04 09:54:55;;;;;;;112.90;74.40;;;9.40;98.70;;;;;;6276884;22;20183;-58
2024/02/04 09:57:22;;;;;;;116.30;77.37;;;9.50;98.80;;;;;;6276985;22;20467;-58
2024/02/04 09:59:49;;;;;;;124.83;77.57;;;9.60;98.90;;;;;;6277430;22;20658;-58
2024/02/04 10:02:18;;;;;;;114.30;73.73;;;9.70;99.00;;;;;;6276957;22;20530;-58
2024/02/04 10:04:48;;;;;;;107.70;72.53;;;9.90;99.10;;;;;;6277357;22;20163;-58
2024/02/04 10:07:18;;;;;;;109.00;71.87;;;10.00;99.10;;;;;;6276996;22;20170;-58
2024/02/04 10:09:45;;;;;;;105.63;66.97;;;10.20;99.20;;;;;;6277331;22;20512;-58
2024/02/04 10:12:13;;;;;;;98.00;64.37;;;10.40;99.20;;;;;;6277197;22;20175;-58
2024/02/04 10:14:40;;;;;;;90.10;63.83;;;10.50;99.10;;;;;;6277023;22;20200;-59
2024/02/04 10:17:07;;;;;;;84.77;57.10;;;10.60;99.00;;;;;;6277422;22;20177;-58
2024/02/04 10:19:34;;;;;;;72.57;49.93;;;10.70;98.90;;;;;;6277163;22;20651;-58
2024/02/04 10:22:02;;;;;;;71.83;47.47;;;10.90;98.90;;;;;;6277359;22;20192;-59
2024/02/04 10:24:30;;;;;;;65.17;47.43;;;11.10;98.90;;;;;;6277444;22;20180;-58
2024/02/04 10:26:58;;;;;;;64.80;43.13;;;11.20;98.70;;;;;;6276929;22;20259;-58
2024/02/04 10:29:25;;;;;;;56.23;42.60;;;11.40;98.50;;;;;;6276915;22;20608;-59
2024/02/04 10:31:54;;;;;;;56.90;41.60;;;11.50;98.30;;;;;;6276935;22;20173;-59
2024/02/04 10:34:21;;;;;;;59.50;43.33;;;11.70;98.00;;;;;;6276683;22;20246;-58
2024/02/04 10:36:49;;;;;;;52.73;39.40;;;11.70;97.30;;;;;;6276554;22;20612;-58
2024/02/04 10:39:16;;;;;;;54.00;40.83;;;11.80;96.90;;;;;;6277035;22;20215;-58
2024/02/04 10:41:54;;;;;;;57.17;40.30;;;11.90;96.40;;;;;;6276784;22;20169;-58
2024/02/04 10:44:24;;;;;;;58.03;40.90;;;12.00;95.90;;;;;;6276910;22;20227;-58
2024/02/04 10:46:53;;;;;;;58.80;42.57;;;12.10;95.80;;;;;;6276826;22;20612;-58
2024/02/04 10:49:24;;;;;;;62.03;46.60;;;12.10;95.30;;;;;;6276836;22;20244;-58
2024/02/04 10:51:52;;;;;;;74.40;48.67;;;12.20;95.30;;;;;;6276772;22;20175;-58
2024/02/04 10:54:24;;;;;;;65.10;47.73;;;12.20;95.50;;;;;;6250479;22;20210;-57
2024/02/04 10:56:58;;;;;;;63.20;45.27;;;12.40;95.60;;;;;;6277046;22;20158;-58
2024/02/04 10:59:29;;;;;;;70.33;47.20;;;12.50;95.50;;;;;;6276606;22;20281;-58
2024/02/04 11:01:57;;;;;;;64.03;46.13;;;12.60;95.20;;;;;;6250963;22;20504;-58
2024/02/04 11:04:24;;;;;;;59.27;45.20;;;12.70;95.10;;;;;;6276192;22;20195;-58
2024/02/04 11:06:53;;;;;;;63.73;46.63;;;12.80;94.80;;;;;;6276732;22;20161;-58
2024/02/04 11:09:22;;;;;;;60.60;44.67;;;12.80;94.50;;;;;;6249675;22;20181;-58
2024/02/04 11:11:50;;;;;;;61.03;45.03;;;12.80;94.40;;;;;;6277296;22;20188;-58
2024/02/04 11:14:20;;;;;;;66.03;45.80;;;12.90;94.40;;;;;;6276287;22;20273;-58
2024/02/04 11:17:05;;;;;;;67.57;48.30;;;12.90;94.30;;;;;;6276541;22;20199;-58
2024/02/04 11:19:50;;;;;;;61.23;45.30;;;12.90;94.20;;;;;;6276883;22;20185;-58
2024/02/04 11:22:45;;;;;;;59.73;44.60;;;13.00;94.30;;;;;;6276791;22;20161;-58
2024/02/04 11:25:31;;;;;;;66.17;47.97;;;13.00;94.20;;;;;;6276643;22;20187;-58
2024/02/04 11:27:58;;;;;;;69.57;48.10;;;13.10;94.30;;;;;;6250341;22;20612;-57
2024/02/04 11:30:25;;;;;;;73.53;52.60;;;13.20;94.40;;;;;;6277019;22;20483;-58
2024/02/04 11:32:53;;;;;;;72.37;54.07;;;13.30;94.10;;;;;;6276807;22;20211;-58
2024/02/04 11:35:21;;;;;;;68.40;49.73;;;13.50;94.10;;;;;;6276389;22;20253;-58
2024/02/04 11:37:49;;;;;;;69.70;50.37;;;13.60;94.00;;;;;;6276379;22;20192;-58
2024/02/04 11:40:16;;;;;;;68.97;51.10;;;13.70;93.60;;;;;;6276587;22;20200;-58
2024/02/04 11:42:45;;;;;;;66.27;49.33;;;13.80;93.40;;;;;;6276470;22;20165;-58
2024/02/04 11:45:13;;;;;;;66.90;48.33;;;13.90;93.10;;;;;;6276821;22;20185;-58
2024/02/04 11:47:41;;;;;;;66.47;48.73;;;13.90;92.80;;;;;;6276941;22;20173;-58
2024/02/04 11:50:09;;;;;;;69.90;51.20;;;14.10;92.80;;;;;;6276793;22;20599;-58
2024/02/04 11:52:39;;;;;;;89.70;65.97;;;14.20;93.00;;;;;;6276838;22;20181;-58
2024/02/04 11:55:14;;;;;;;74.70;54.10;;;14.30;92.90;;;;;;6276229;22;20189;-58
2024/02/04 11:57:41;;;;;;;74.60;55.47;;;14.50;92.70;;;;;;6276407;22;20157;-58
2024/02/04 12:00:10;;;;;;;72.73;53.47;;;14.60;92.50;;;;;;6276990;22;20173;-59
2024/02/04 12:02:38;;;;;;;84.23;59.03;;;14.80;92.30;;;;;;6250085;22;20248;-58
2024/02/04 12:05:07;;;;;;;88.03;58.83;;;14.80;92.20;;;;;;6277041;22;20178;-58
2024/02/04 12:07:34;;;;;;;83.83;59.07;;;14.90;91.90;;;;;;6276410;22;20196;-58
2024/02/04 12:10:05;;;;;;;82.23;59.90;;;15.00;91.80;;;;;;6276366;22;20188;-58
2024/02/04 12:12:32;;;;;;;83.20;58.93;;;15.10;91.60;;;;;;6278100;22;20184;-58
2024/02/04 12:15:00;;;;;;;78.10;57.07;;;15.10;91.30;;;;;;6278090;22;20480;-58
2024/02/04 12:17:27;;;;;;;80.47;57.80;;;15.20;91.30;;;;;;6278224;22;20161;-58
2024/02/04 12:19:55;;;;;;;77.00;56.90;;;15.20;91.20;;;;;;6278541;22;20675;-58
2024/02/04 12:22:22;;;;;;;76.63;56.30;;;15.30;91.10;;;;;;6277764;22;20165;-58
2024/02/04 12:24:49;;;;;;;83.97;59.97;;;15.30;90.80;;;;;;6278533;22;20453;-58
2024/02/04 12:27:17;;;;;;;76.20;55.30;;;15.30;90.50;;;;;;6278223;22;20612;-58
2024/02/04 12:29:44;;;;;;;70.80;51.87;;;15.30;90.30;;;;;;6278318;22;20174;-58
2024/02/04 12:32:13;;;;;;;79.87;56.30;;;15.30;90.40;;;;;;6278027;22;20177;-58
2024/02/04 12:34:42;;;;;;;71.00;49.90;;;15.40;90.40;;;;;;6277976;22;20201;-58